Time;durP1;ratioP1;P1;durP2;ratioP2;P2;SDS_P1;SDS_P2;PMS_P1;PMS_P2;Temp;Humidity;BMP_temperature;BMP_pressure;BME280_temperature;BME280_humidity;BME280_pressure;Samples;Min_cycle;Max_cycle;Signal;HPM_P1;HPM_P2
2022/03/09 00:00:31;;;;;;;4.15;3.10;;;;;;;12.94;26.87;97106.31;5056027;28;20025;-26
2022/03/09 00:02:57;;;;;;;4.53;2.65;;;;;;;12.98;26.85;97106.22;5055478;28;20371;-26
2022/03/09 00:05:23;;;;;;;4.60;2.80;;;;;;;13.01;26.68;97108.06;5055441;28;20485;-27
2022/03/09 00:07:48;;;;;;;5.47;3.33;;;;;;;13.05;26.89;97116.94;5055770;28;20048;-27
2022/03/09 00:10:14;;;;;;;4.28;2.92;;;;;;;13.00;26.93;97115.47;5055632;28;20549;-26
2022/03/09 00:12:39;;;;;;;4.53;3.00;;;;;;;13.02;26.95;97121.25;5055638;28;20020;-27
2022/03/09 00:15:05;;;;;;;3.72;2.58;;;;;;;12.99;26.93;97124.06;5055540;28;20493;-26
2022/03/09 00:20:52;;;;;;;3.63;2.50;;;;;;;12.89;26.88;97117.69;5055507;28;20040;-27
2022/03/09 00:23:18;;;;;;;4.32;2.55;;;;;;;12.95;26.78;97113.28;5055702;28;20025;-26
2022/03/09 00:25:44;;;;;;;3.78;2.42;;;;;;;12.92;26.61;97116.84;5055337;28;20024;-26
2022/03/09 00:28:09;;;;;;;4.68;2.58;;;;;;;12.92;26.89;97119.56;5055250;28;20111;-28
2022/03/09 00:30:35;;;;;;;4.00;2.80;;;;;;;12.97;26.61;97116.34;5055285;28;20061;-27
2022/03/09 00:33:00;;;;;;;4.45;2.70;;;;;;;13.00;26.85;97111.97;5055229;28;20028;-27
2022/03/09 00:35:26;;;;;;;4.47;2.72;;;;;;;12.91;26.79;97118.03;5055224;28;20024;-26
2022/03/09 00:37:55;;;;;;;4.00;2.40;;;;;;;12.87;26.93;97111.91;5054176;28;20020;-26
2022/03/09 00:40:21;;;;;;;3.60;2.40;;;;;;;12.92;26.73;97117.63;5055113;28;20083;-26
2022/03/09 00:42:46;;;;;;;4.10;2.67;;;;;;;12.90;26.89;97116.50;5055210;28;20017;-26
2022/03/09 00:45:12;;;;;;;3.42;1.98;;;;;;;12.91;26.52;97120.75;5055232;28;20025;-26
2022/03/09 00:47:38;;;;;;;4.80;2.70;;;;;;;12.95;26.88;97119.50;5053818;28;20164;-26
2022/03/09 00:50:05;;;;;;;4.05;2.45;;;;;;;12.90;26.69;97113.78;5054997;28;20058;-27
2022/03/09 00:52:30;;;;;;;3.53;2.40;;;;;;;12.98;26.84;97117.88;5054939;28;20025;-26
2022/03/09 00:54:56;;;;;;;3.67;2.30;;;;;;;12.95;26.65;97118.72;5054958;28;20024;-27
2022/03/09 00:57:22;;;;;;;3.45;2.45;;;;;;;12.94;26.74;97112.50;5054785;28;20461;-26
2022/03/09 00:59:47;;;;;;;3.67;2.08;;;;;;;12.90;26.52;97111.06;5054830;28;20025;-26
2022/03/09 01:02:13;;;;;;;3.88;2.67;;;;;;;12.85;26.70;97097.97;5054923;28;20040;-26
2022/03/09 01:04:39;;;;;;;4.45;2.70;;;;;;;12.88;26.78;97099.81;5053807;28;20049;-26
2022/03/09 01:07:05;;;;;;;3.90;2.42;;;;;;;12.86;26.79;97094.03;5054531;28;20119;-27
2022/03/09 01:09:31;;;;;;;3.80;2.50;;;;;;;12.92;26.88;97095.06;5054720;28;20025;-27
2022/03/09 01:11:57;;;;;;;3.08;2.30;;;;;;;12.83;26.63;97094.91;5054841;28;20476;-27
2022/03/09 01:14:23;;;;;;;3.03;2.10;;;;;;;12.76;27.09;97092.31;5054532;28;20055;-26
2022/03/09 01:16:49;;;;;;;3.30;2.40;;;;;;;12.86;27.07;97088.59;5054460;28;20401;-27
2022/03/09 01:19:16;;;;;;;3.10;2.38;;;;;;;12.70;26.92;97085.88;5054097;28;20021;-27
2022/03/09 01:21:42;;;;;;;3.25;2.25;;;;;;;12.82;27.13;97093.38;5054570;28;20017;-26
2022/03/09 01:24:07;;;;;;;4.22;2.25;;;;;;;12.77;26.69;97085.69;5054397;28;20386;-26
2022/03/09 01:26:34;;;;;;;6.45;2.55;;;;;;;12.69;26.76;97084.34;5054282;28;20020;-26
2022/03/09 01:29:00;;;;;;;4.30;2.80;;;;;;;12.68;27.03;97088.25;5054198;28;20029;-28
2022/03/09 01:31:26;;;;;;;3.45;2.47;;;;;;;12.78;26.91;97087.22;5054493;28;20020;-26
2022/03/09 01:33:52;;;;;;;4.45;2.50;;;;;;;12.76;26.76;97084.16;5054082;28;20051;-27
2022/03/09 01:36:17;;;;;;;3.80;2.15;;;;;;;12.81;26.49;97079.00;5054309;28;20036;-26
2022/03/09 01:38:43;;;;;;;2.83;2.05;;;;;;;12.75;26.99;97085.34;5054102;28;20021;-27
2022/03/09 01:41:09;;;;;;;3.95;2.47;;;;;;;12.75;26.70;97094.28;5054096;28;20404;-27
2022/03/09 01:43:34;;;;;;;3.97;2.58;;;;;;;12.79;26.85;97091.47;5054097;28;20404;-26
2022/03/09 01:46:00;;;;;;;6.68;2.60;;;;;;;12.77;26.60;97091.13;5053854;28;20107;-27
2022/03/09 01:48:25;;;;;;;4.28;2.58;;;;;;;12.81;26.32;97100.00;5053909;28;20029;-27
2022/03/09 01:50:51;;;;;;;3.17;2.03;;;;;;;12.76;26.57;97087.66;5053838;28;20056;-26
2022/03/09 01:53:18;;;;;;;3.25;2.45;;;;;;;12.74;26.87;97092.75;5053800;28;20457;-28
2022/03/09 01:55:44;;;;;;;4.05;2.53;;;;;;;12.72;26.61;97094.38;5052280;28;20048;-27
2022/03/09 01:58:10;;;;;;;3.65;2.60;;;;;;;12.69;26.60;97087.06;5053613;28;20045;-26
2022/03/09 02:00:36;;;;;;;3.13;2.17;;;;;;;12.67;26.64;97090.19;5053877;28;20056;-26
2022/03/09 02:03:02;;;;;;;3.25;2.40;;;;;;;12.66;27.02;97088.66;5053418;28;20104;-28
2022/03/09 02:05:27;;;;;;;4.00;2.70;;;;;;;12.73;26.58;97085.78;5053465;28;20132;-26
2022/03/09 02:10:50;;;;;;;4.45;2.35;;;;;;;12.71;26.56;97092.84;5051571;28;20405;-26
2022/03/09 02:13:15;;;;;;;4.32;2.90;;;;;;;12.62;26.61;97092.66;5053433;28;20537;-27
2022/03/09 02:15:44;;;;;;;5.63;2.60;;;;;;;12.70;26.58;97100.25;5053440;28;20124;-27
2022/03/09 02:18:09;;;;;;;3.08;2.30;;;;;;;12.71;26.80;97095.56;5053295;28;20021;-26
2022/03/09 02:20:41;;;;;;;3.47;2.40;;;;;;;12.66;26.88;97083.22;5053283;28;20024;-26
2022/03/09 02:23:06;;;;;;;3.20;2.33;;;;;;;12.77;26.70;97086.47;5053583;28;20025;-26
2022/03/09 02:25:32;;;;;;;3.15;2.17;;;;;;;12.77;26.75;97085.69;5053266;28;20509;-26
2022/03/09 02:28:01;;;;;;;3.38;2.28;;;;;;;12.77;26.40;97080.25;5053231;28;20017;-27
2022/03/09 02:30:26;;;;;;;3.20;2.20;;;;;;;12.72;26.67;97083.50;5053273;28;20078;-27
2022/03/09 02:32:52;;;;;;;3.92;2.50;;;;;;;12.79;26.40;97083.31;5053179;28;20028;-26
2022/03/09 02:35:20;;;;;;;3.63;2.30;;;;;;;12.81;26.54;97076.25;5053279;28;20029;-26
2022/03/09 02:37:46;;;;;;;3.17;2.28;;;;;;;12.71;26.70;97079.25;5052867;28;20049;-26
2022/03/09 02:40:15;;;;;;;3.47;2.25;;;;;;;12.71;26.88;97079.25;5052753;28;20039;-26
2022/03/09 02:42:41;;;;;;;3.05;2.20;;;;;;;12.72;26.79;97083.50;5053136;28;20025;-26
2022/03/09 02:45:07;;;;;;;2.47;2.15;;;;;;;12.67;26.79;97070.38;5053448;28;20435;-26
2022/03/09 02:47:33;;;;;;;3.55;2.05;;;;;;;12.66;26.59;97074.28;5053092;28;20017;-28
2022/03/09 02:50:00;;;;;;;3.90;2.40;;;;;;;12.67;26.70;97065.72;5053111;28;20021;-26
2022/03/09 02:52:26;;;;;;;3.65;2.47;;;;;;;12.64;26.57;97073.94;5053226;28;20025;-27
2022/03/09 02:54:52;;;;;;;3.97;2.08;;;;;;;12.70;26.52;97081.19;5053152;28;20525;-27
2022/03/09 02:57:18;;;;;;;3.53;2.20;;;;;;;12.70;26.39;97083.16;5052012;28;20028;-27
2022/03/09 02:59:43;;;;;;;3.35;2.28;;;;;;;12.71;26.29;97081.97;5053068;28;20473;-27
2022/03/09 03:02:09;;;;;;;3.45;2.10;;;;;;;12.62;26.73;97071.66;5056923;28;20025;-26
2022/03/09 03:04:34;;;;;;;2.92;2.13;;;;;;;12.67;26.65;97078.53;5056426;28;20515;-26
2022/03/09 03:07:00;;;;;;;2.92;2.00;;;;;;;12.68;26.34;97082.81;5057093;28;20021;-27
2022/03/09 03:09:26;;;;;;;2.75;2.08;;;;;;;12.67;26.54;97086.72;5057181;28;20025;-26
2022/03/09 03:11:51;;;;;;;3.22;2.20;;;;;;;12.66;26.34;97090.63;5056796;28;20416;-27
2022/03/09 03:14:17;;;;;;;3.50;2.05;;;;;;;12.73;26.29;97091.25;5056770;28;20075;-28
2022/03/09 03:16:43;;;;;;;3.60;2.35;;;;;;;12.70;26.60;97086.63;5056863;28;20075;-26
2022/03/09 03:19:08;;;;;;;3.30;2.40;;;;;;;12.63;26.58;97086.00;5056680;28;20400;-26
2022/03/09 03:21:40;;;;;;;3.13;2.17;;;;;;;12.67;26.24;97092.16;5056571;28;20079;-27
2022/03/09 03:24:06;;;;;;;2.80;2.10;;;;;;;12.71;26.24;97088.16;5056613;28;20082;-27
2022/03/09 03:26:31;;;;;;;3.20;2.00;;;;;;;12.61;26.47;97088.41;5056472;28;20024;-29
2022/03/09 03:28:58;;;;;;;3.50;2.17;;;;;;;12.59;26.31;97097.78;5056446;28;20097;-27
2022/03/09 03:31:24;;;;;;;4.35;2.70;;;;;;;12.62;26.23;97093.41;5056488;28;20021;-27
2022/03/09 03:33:50;;;;;;;2.72;2.10;;;;;;;12.52;26.29;97095.19;5056434;28;20364;-26
2022/03/09 03:36:16;;;;;;;3.85;2.15;;;;;;;12.65;26.43;97098.00;5056403;28;20040;-27
2022/03/09 03:38:42;;;;;;;3.40;2.13;;;;;;;12.37;26.55;97099.41;5056535;28;20035;-28
2022/03/09 03:41:08;;;;;;;3.15;2.50;;;;;;;12.55;26.22;97102.50;5054893;28;20025;-26
2022/03/09 03:43:34;;;;;;;3.13;2.28;;;;;;;12.59;26.14;97108.66;5056449;28;20070;-26
2022/03/09 03:45:59;;;;;;;4.20;2.38;;;;;;;12.67;26.40;97117.41;5056161;28;20468;-27
2022/03/09 03:48:25;;;;;;;4.10;2.50;;;;;;;12.64;26.26;97117.47;5056219;28;20049;-26
2022/03/09 03:50:50;;;;;;;3.88;2.55;;;;;;;12.72;26.41;97110.72;5056073;28;20381;-26
2022/03/09 03:53:16;;;;;;;3.78;2.50;;;;;;;12.76;26.11;97116.81;5055933;28;20107;-27
2022/03/09 03:55:44;;;;;;;4.53;2.55;;;;;;;12.71;26.05;97109.19;5055877;28;20420;-26
2022/03/09 03:58:09;;;;;;;4.00;2.53;;;;;;;12.74;26.18;97103.63;5054799;28;20033;-27
2022/03/09 04:00:35;;;;;;;3.50;2.33;;;;;;;12.66;26.16;97113.16;5055795;28;20074;-26
2022/03/09 04:03:00;;;;;;;4.18;2.47;;;;;;;12.61;26.33;97110.19;5055853;28;20071;-26
2022/03/09 04:05:26;;;;;;;3.67;2.30;;;;;;;12.58;26.11;97109.84;5055876;28;20523;-26
2022/03/09 04:07:52;;;;;;;4.47;2.35;;;;;;;12.59;26.33;97110.59;5055957;28;20159;-27
2022/03/09 04:10:18;;;;;;;4.75;2.53;;;;;;;12.64;26.27;97114.75;5055714;28;20028;-27
2022/03/09 04:12:43;;;;;;;3.25;2.63;;;;;;;12.71;26.20;97112.66;5054409;28;20070;-26
2022/03/09 04:15:09;;;;;;;3.58;2.28;;;;;;;12.63;26.18;97124.88;5055646;28;20029;-26
2022/03/09 04:17:43;;;;;;;5.18;2.58;;;;;;;12.62;26.28;97114.41;5055565;28;20469;-26
2022/03/09 04:20:08;;;;;;;;;;;;;;;12.58;26.13;97122.69;5055963;28;20021;-27
2022/03/09 04:22:34;;;;;;;4.68;2.58;;;;;;;12.54;26.39;97120.03;5055693;28;19920;-27
2022/03/09 04:25:00;;;;;;;3.60;2.30;;;;;;;12.62;26.28;97123.34;5055595;28;20389;-26
2022/03/09 04:27:25;;;;;;;3.75;2.65;;;;;;;12.52;26.22;97125.13;5055320;28;20024;-27
2022/03/09 04:29:51;;;;;;;4.15;2.80;;;;;;;12.59;26.22;97124.97;5055486;28;20029;-28
2022/03/09 04:32:16;;;;;;;3.40;2.78;;;;;;;12.56;26.02;97125.81;5055371;28;20033;-27
2022/03/09 04:34:42;;;;;;;5.72;2.78;;;;;;;12.47;26.25;97130.31;5055334;28;20025;-27
2022/03/09 04:37:07;;;;;;;5.25;2.80;;;;;;;12.49;26.26;97136.06;5055429;28;20036;-26
2022/03/09 04:39:33;;;;;;;5.07;2.50;;;;;;;12.47;25.93;97135.75;5055100;28;20090;-27
2022/03/09 04:41:59;;;;;;;3.97;2.60;;;;;;;12.53;26.35;97132.09;5055146;28;20032;-26
2022/03/09 04:44:24;;;;;;;4.85;3.00;;;;;;;12.50;26.03;97132.16;5055027;28;20024;-27
2022/03/09 04:46:50;;;;;;;4.53;2.75;;;;;;;12.41;26.51;97135.47;5053814;28;20056;-26
2022/03/09 04:49:16;;;;;;;5.03;2.70;;;;;;;12.46;26.13;97129.53;5054943;28;20465;-26
2022/03/09 04:51:41;;;;;;;6.85;2.83;;;;;;;12.53;26.13;97129.38;5055230;28;20380;-27
2022/03/09 04:54:09;;;;;;;3.95;2.90;;;;;;;12.56;26.12;97136.69;5055060;28;20025;-27
2022/03/09 04:56:34;;;;;;;3.85;2.70;;;;;;;12.63;26.18;97129.56;5054910;28;20033;-26
2022/03/09 04:59:00;;;;;;;4.13;2.75;;;;;;;12.32;26.69;97127.13;5054630;28;20025;-27
2022/03/09 05:01:26;;;;;;;4.57;2.70;;;;;;;12.50;26.38;97127.50;5054928;28;20445;-26
2022/03/09 05:03:54;;;;;;;4.47;2.78;;;;;;;12.47;26.21;97128.34;5054566;28;20076;-27
2022/03/09 05:06:21;;;;;;;3.58;2.72;;;;;;;12.53;25.94;97123.94;5054542;28;20033;-26
2022/03/09 05:08:46;;;;;;;4.25;2.90;;;;;;;12.52;26.15;97119.69;5054808;28;20017;-27
2022/03/09 05:11:12;;;;;;;3.28;2.40;;;;;;;12.62;25.92;97133.47;5054352;28;20032;-26
2022/03/09 05:13:38;;;;;;;4.50;2.55;;;;;;;12.56;26.06;97130.50;5054413;28;20033;-26
2022/03/09 05:16:05;;;;;;;4.88;3.38;;;;;;;12.51;26.41;97133.69;5054512;28;20111;-28
2022/03/09 05:18:31;;;;;;;4.45;2.95;;;;;;;12.46;26.37;97134.97;5054290;28;20021;-26
2022/03/09 05:20:57;;;;;;;3.90;2.72;;;;;;;12.49;26.18;97127.91;5054677;28;20025;-27
2022/03/09 05:23:23;;;;;;;3.50;2.45;;;;;;;12.51;26.16;97134.47;5054082;28;20351;-26
2022/03/09 05:25:48;;;;;;;4.97;2.95;;;;;;;12.63;26.24;97137.72;5052788;28;20040;-26
2022/03/09 05:28:14;;;;;;;5.07;3.30;;;;;;;12.46;26.29;97132.25;5054415;28;20118;-28
2022/03/09 05:30:39;;;;;;;4.47;3.08;;;;;;;12.53;26.14;97139.50;5054264;28;20052;-26
2022/03/09 05:33:05;;;;;;;4.50;2.95;;;;;;;12.54;25.97;97130.91;5054326;28;20024;-26
2022/03/09 05:35:30;;;;;;;4.65;2.90;;;;;;;12.50;25.89;97145.75;5054195;28;20064;-26
2022/03/09 05:37:56;;;;;;;5.10;3.13;;;;;;;12.57;26.23;97143.69;5053886;28;20029;-26
2022/03/09 05:40:22;;;;;;;3.95;2.72;;;;;;;12.58;25.78;97136.28;5053952;28;20162;-27
2022/03/09 05:42:47;;;;;;;5.63;3.05;;;;;;;12.60;26.17;97142.06;5053841;28;20039;-26
2022/03/09 05:45:13;;;;;;;5.25;3.20;;;;;;;12.62;25.84;97142.38;5053940;28;20112;-27
2022/03/09 05:47:39;;;;;;;3.72;2.80;;;;;;;12.38;26.37;97133.56;5053975;28;20045;-26
2022/03/09 05:50:05;;;;;;;5.35;3.30;;;;;;;12.49;26.36;97133.34;5054018;28;20020;-27
2022/03/09 05:52:30;;;;;;;4.28;2.83;;;;;;;12.50;26.26;97135.66;5053635;28;20029;-27
2022/03/09 05:54:56;;;;;;;4.93;3.35;;;;;;;12.56;25.85;97131.25;5053597;28;20146;-26
2022/03/09 05:57:28;;;;;;;5.18;3.53;;;;;;;12.52;26.13;97138.72;5053647;28;20073;-26
2022/03/09 05:59:53;;;;;;;5.20;3.25;;;;;;;12.54;25.83;97147.22;5052457;28;20390;-28
2022/03/09 06:02:19;;;;;;;4.32;3.13;;;;;;;12.63;25.79;97143.16;5053971;28;20031;-26
2022/03/09 06:04:47;;;;;;;4.88;3.15;;;;;;;12.50;26.46;97154.69;5053401;28;20128;-27
2022/03/09 06:07:13;;;;;;;5.72;2.90;;;;;;;12.64;25.83;97161.03;5053878;28;20592;-27
2022/03/09 06:09:39;;;;;;;4.40;3.22;;;;;;;12.58;26.37;97156.09;5053699;28;20112;-26
2022/03/09 06:12:05;;;;;;;5.15;3.30;;;;;;;12.65;25.90;97159.84;5051949;28;20104;-27
2022/03/09 06:14:31;;;;;;;5.07;3.17;;;;;;;12.60;26.34;97169.28;5053382;28;20104;-27
2022/03/09 06:16:57;;;;;;;5.07;3.00;;;;;;;12.43;26.56;97176.63;5053335;28;20494;-26
2022/03/09 06:19:22;;;;;;;4.55;3.00;;;;;;;12.45;26.50;97184.38;5053470;28;20021;-26
2022/03/09 06:21:48;;;;;;;5.95;2.90;;;;;;;12.49;26.53;97191.25;5053575;28;20016;-28
2022/03/09 06:24:18;;;;;;;7.15;3.60;;;;;;;12.54;26.28;97192.72;5053190;28;20385;-29
2022/03/09 06:26:45;;;;;;;4.93;3.10;;;;;;;12.50;26.42;97198.22;5053151;28;20643;-26
2022/03/09 06:29:11;;;;;;;4.45;2.83;;;;;;;12.58;26.11;97196.16;5053165;28;20021;-26
2022/03/09 06:31:42;;;;;;;5.32;3.10;;;;;;;12.59;26.32;97190.28;5053620;28;20032;-26
2022/03/09 06:34:08;;;;;;;5.57;2.95;;;;;;;12.56;26.18;97196.56;5051817;28;20029;-26
2022/03/09 06:36:33;;;;;;;4.60;2.90;;;;;;;12.57;26.61;97202.78;5052579;28;20025;-26
2022/03/09 06:38:59;;;;;;;6.32;3.22;;;;;;;12.55;26.58;97199.69;5053049;28;20040;-27
2022/03/09 06:41:25;;;;;;;5.32;3.40;;;;;;;12.56;26.54;97201.22;5039420;28;20463;-27
2022/03/09 06:43:51;;;;;;;6.85;3.75;;;;;;;12.40;26.47;97203.88;5011256;28;20040;-27
2022/03/09 06:46:17;;;;;;;5.65;3.45;;;;;;;12.48;26.28;97203.34;5011600;28;20108;-27
2022/03/09 06:48:43;;;;;;;5.30;3.20;;;;;;;12.38;26.37;97207.03;5011561;28;20076;-27
2022/03/09 06:51:09;;;;;;;5.65;3.42;;;;;;;12.40;26.65;97204.66;5011392;28;20408;-27
2022/03/09 06:53:34;;;;;;;6.70;3.50;;;;;;;12.48;26.45;97206.06;5011202;28;20018;-27
2022/03/09 06:56:00;;;;;;;7.05;3.17;;;;;;;12.54;26.23;97209.81;5011530;28;20156;-28
2022/03/09 06:58:26;;;;;;;7.30;4.10;;;;;;;12.51;26.64;97213.38;5011417;28;20381;-27
2022/03/09 07:00:52;;;;;;;6.45;3.85;;;;;;;12.46;26.17;97211.16;5011461;28;20036;-26
2022/03/09 07:03:17;;;;;;;7.70;3.92;;;;;;;12.28;26.82;97229.75;5011063;28;20021;-26
2022/03/09 07:05:43;;;;;;;9.38;4.40;;;;;;;12.02;27.17;97211.59;5011041;28;20030;-27
2022/03/09 07:08:09;;;;;;;8.05;4.97;;;;;;;12.21;26.76;97219.03;5011548;28;20022;-26
2022/03/09 07:10:34;;;;;;;7.82;5.03;;;;;;;12.39;26.67;97219.44;5011459;28;20030;-26
2022/03/09 07:13:00;;;;;;;10.35;5.53;;;;;;;12.51;26.55;97215.31;5011359;28;20493;-26
2022/03/09 07:15:25;;;;;;;8.15;4.70;;;;;;;12.41;26.46;97211.63;5011221;28;20021;-27
2022/03/09 07:17:51;;;;;;;7.88;4.40;;;;;;;12.46;26.49;97213.88;5010943;28;20029;-26
2022/03/09 07:20:20;;;;;;;10.70;5.45;;;;;;;12.59;26.25;97222.16;5010016;28;20073;-27
2022/03/09 07:22:46;;;;;;;9.13;5.20;;;;;;;12.38;26.74;97217.91;5011295;28;20036;-28
2022/03/09 07:25:14;;;;;;;10.50;5.78;;;;;;;12.37;26.73;97227.25;5011271;28;20022;-27
2022/03/09 07:27:39;;;;;;;8.32;4.93;;;;;;;12.37;26.69;97221.03;5011053;28;20026;-26
2022/03/09 07:30:06;;;;;;;7.97;4.97;;;;;;;12.46;26.21;97222.03;5010930;28;20052;-27
2022/03/09 07:32:32;;;;;;;6.82;4.40;;;;;;;12.49;26.39;97226.63;5011043;28;20520;-26
2022/03/09 07:34:58;;;;;;;9.98;4.53;;;;;;;12.49;26.20;97228.56;5011316;28;20038;-26
2022/03/09 07:37:24;;;;;;;8.48;5.03;;;;;;;12.39;26.46;97218.66;5011097;28;20033;-28
2022/03/09 07:39:49;;;;;;;8.32;5.30;;;;;;;12.37;26.31;97215.59;5011259;28;20026;-26
2022/03/09 07:42:15;;;;;;;8.60;5.18;;;;;;;12.10;26.81;97224.66;5010849;28;20025;-26
2022/03/09 07:44:41;;;;;;;7.57;4.75;;;;;;;12.17;26.82;97221.81;5011071;28;20068;-26
2022/03/09 07:47:07;;;;;;;8.40;4.90;;;;;;;12.28;26.57;97227.03;5013091;28;20124;-28
2022/03/09 07:49:33;;;;;;;8.15;4.63;;;;;;;12.27;26.45;97232.91;5014379;28;20032;-26
2022/03/09 07:52:00;;;;;;;7.32;4.80;;;;;;;12.22;26.68;97237.66;5013062;28;20029;-27
2022/03/09 07:54:27;;;;;;;7.35;4.97;;;;;;;12.35;26.27;97237.81;5014103;28;20022;-26
2022/03/09 07:56:56;;;;;;;8.77;4.82;;;;;;;12.29;26.53;97238.69;5014373;28;20081;-26
2022/03/09 07:59:21;;;;;;;8.82;5.03;;;;;;;12.32;26.35;97240.59;5014192;28;20034;-27
2022/03/09 08:01:52;;;;;;;8.07;5.18;;;;;;;12.42;26.67;97239.59;5014352;28;20033;-27
2022/03/09 08:04:19;;;;;;;7.60;4.32;;;;;;;12.47;26.28;97236.41;5014086;28;20050;-26
2022/03/09 08:06:46;;;;;;;8.18;4.45;;;;;;;12.45;26.19;97244.22;5014028;28;20467;-26
2022/03/09 08:09:12;;;;;;;7.80;5.00;;;;;;;12.38;26.43;97247.81;5014131;28;20026;-26
2022/03/09 08:11:38;;;;;;;8.20;4.97;;;;;;;12.31;26.75;97245.25;5014207;28;20383;-27
2022/03/09 08:14:03;;;;;;;7.20;4.90;;;;;;;12.20;27.17;97237.28;5014007;28;20442;-26
2022/03/09 08:16:29;;;;;;;9.07;5.53;;;;;;;11.90;26.97;97244.84;5014060;28;20433;-26
2022/03/09 08:18:55;;;;;;;8.45;4.63;;;;;;;12.10;27.44;97251.88;5013576;28;20113;-27
2022/03/09 08:21:20;;;;;;;7.40;4.53;;;;;;;12.10;27.25;97251.88;5012187;28;20087;-27
2022/03/09 08:23:46;;;;;;;6.75;4.68;;;;;;;12.34;26.91;97247.16;5013894;28;20034;-29
2022/03/09 08:26:11;;;;;;;8.35;5.00;;;;;;;11.80;27.69;97252.00;5013902;28;20029;-27
2022/03/09 08:28:37;;;;;;;7.82;4.93;;;;;;;12.30;27.33;97260.03;5013580;28;20113;-28
2022/03/09 08:31:03;;;;;;;7.95;4.63;;;;;;;12.32;27.05;97257.66;5013726;28;20091;-26
2022/03/09 08:33:28;;;;;;;6.97;5.00;;;;;;;12.15;27.33;97251.38;5013782;28;20026;-26
2022/03/09 08:35:54;;;;;;;7.00;4.50;;;;;;;12.27;27.06;97255.41;5013837;28;20022;-27
2022/03/09 08:38:20;;;;;;;7.63;4.65;;;;;;;12.23;27.48;97255.50;5013541;28;20030;-26
2022/03/09 08:40:45;;;;;;;8.70;5.00;;;;;;;12.27;27.18;97252.69;5011885;28;20065;-26
2022/03/09 08:43:11;;;;;;;6.63;4.65;;;;;;;12.23;27.64;97255.50;5013522;28;20064;-27
2022/03/09 08:45:38;;;;;;;9.43;5.68;;;;;;;12.26;27.31;97248.44;5013371;28;20092;-27
2022/03/09 08:48:05;;;;;;;7.30;4.60;;;;;;;12.19;27.55;97256.75;5013207;28;20030;-27
2022/03/09 08:50:31;;;;;;;9.38;5.63;;;;;;;12.14;27.92;97262.66;5013451;28;20033;-26
2022/03/09 08:52:56;;;;;;;8.10;5.07;;;;;;;12.31;27.37;97267.00;5013133;28;20032;-26
2022/03/09 08:55:22;;;;;;;9.55;5.05;;;;;;;12.01;27.89;97269.88;5011529;28;20081;-28
2022/03/09 08:57:48;;;;;;;9.52;5.40;;;;;;;12.17;27.95;97269.97;5012558;28;20502;-26
2022/03/09 09:00:14;;;;;;;10.35;5.30;;;;;;;12.25;27.56;97274.09;5013105;28;20057;-27
2022/03/09 09:02:39;;;;;;;10.82;5.00;;;;;;;12.30;27.42;97265.47;5013121;28;20022;-27
2022/03/09 09:05:06;;;;;;;9.30;5.63;;;;;;;12.37;27.62;97259.88;5012751;28;20078;-26
2022/03/09 09:07:31;;;;;;;10.88;5.80;;;;;;;12.12;27.88;97259.56;5013114;28;20505;-26
2022/03/09 09:09:57;;;;;;;10.77;6.55;;;;;;;11.97;28.11;97266.47;5025626;28;20105;-26
2022/03/09 09:12:22;;;;;;;10.70;5.40;;;;;;;12.20;28.16;97271.88;5034686;28;20108;-26
2022/03/09 09:14:48;;;;;;;8.65;5.82;;;;;;;12.15;28.00;97264.19;5034594;28;20034;-27
2022/03/09 09:17:14;;;;;;;10.50;6.00;;;;;;;12.06;28.20;97263.97;5034667;28;20071;-27
2022/03/09 09:19:40;;;;;;;8.88;5.88;;;;;;;11.82;28.53;97269.41;5034474;28;20100;-27
2022/03/09 09:22:05;;;;;;;8.95;5.68;;;;;;;12.14;28.40;97263.41;5034472;28;20488;-27
2022/03/09 09:24:31;;;;;;;9.45;4.93;;;;;;;12.20;28.18;97266.44;5034239;28;20061;-26
2022/03/09 09:26:57;;;;;;;11.57;5.55;;;;;;;12.20;28.29;97277.31;5034497;28;20021;-26
2022/03/09 09:29:23;;;;;;;8.75;5.68;;;;;;;12.44;27.83;97267.94;5035085;28;20032;-27
2022/03/09 09:31:48;;;;;;;9.60;5.13;;;;;;;12.29;28.03;97276.75;5034503;28;20030;-26
2022/03/09 09:34:16;;;;;;;9.40;5.22;;;;;;;12.25;28.25;97282.25;5034182;28;20056;-26
2022/03/09 09:36:46;;;;;;;9.25;5.43;;;;;;;12.16;28.44;97277.38;5034211;28;20041;-26
2022/03/09 09:39:15;;;;;;;9.23;5.60;;;;;;;12.24;28.38;97280.72;5034087;28;20029;-28
2022/03/09 09:41:46;;;;;;;10.10;5.22;;;;;;;12.31;28.12;97260.81;5034093;28;20048;-28
2022/03/09 09:44:13;;;;;;;9.63;5.38;;;;;;;12.48;27.98;97279.53;5033912;28;20052;-26
2022/03/09 09:46:41;;;;;;;9.88;4.93;;;;;;;12.10;28.55;97275.56;5034038;28;20485;-27
2022/03/09 09:49:09;;;;;;;8.57;4.78;;;;;;;11.96;28.69;97273.09;5033945;28;20028;-27
2022/03/09 09:51:37;;;;;;;5.57;3.83;;;;;;;12.24;28.45;97267.91;5033800;28;20371;-26
2022/03/09 09:54:03;;;;;;;7.97;4.85;;;;;;;12.36;28.10;97266.53;5034149;28;20029;-27
2022/03/09 09:56:29;;;;;;;6.43;4.43;;;;;;;12.13;28.23;97269.28;5034250;28;20187;-27
2022/03/09 09:58:56;;;;;;;6.45;4.50;;;;;;;12.12;28.69;97268.50;5033513;28;20048;-27
2022/03/09 10:01:22;;;;;;;7.55;4.35;;;;;;;12.33;28.53;97263.88;5034055;28;20030;-26
2022/03/09 10:03:47;;;;;;;7.47;4.18;;;;;;;12.38;28.45;97261.44;5033553;28;20102;-28
2022/03/09 10:06:13;;;;;;;7.05;4.20;;;;;;;12.19;28.54;97264.91;5033741;28;20017;-27
2022/03/09 10:08:39;;;;;;;9.00;4.47;;;;;;;12.01;29.09;97267.91;5033627;28;20036;-26
2022/03/09 10:11:05;;;;;;;7.25;4.40;;;;;;;12.10;28.64;97264.69;5032860;28;20105;-27
2022/03/09 10:13:38;;;;;;;8.07;4.57;;;;;;;11.77;29.04;97272.59;5033546;28;20155;-26
2022/03/09 10:16:11;;;;;;;6.35;4.47;;;;;;;12.19;28.68;97264.91;5032470;28;20057;-27
2022/03/09 10:18:37;;;;;;;6.38;4.90;;;;;;;12.32;28.58;97254.94;5033844;28;20393;-26
2022/03/09 10:21:17;;;;;;;10.40;5.78;;;;;;;11.86;29.29;97256.56;5033409;28;20025;-26
2022/03/09 10:23:52;;;;;;;7.07;4.22;;;;;;;12.38;28.49;97261.44;5033461;28;20057;-28
2022/03/09 10:26:18;;;;;;;6.10;4.30;;;;;;;12.41;28.29;97249.72;5032266;28;20343;-26
2022/03/09 10:28:56;;;;;;;5.80;4.00;;;;;;;11.77;29.75;97248.16;5033486;28;20080;-25
2022/03/09 10:31:38;;;;;;;7.15;4.70;;;;;;;12.05;29.33;97246.13;5033500;28;20055;-26
2022/03/09 10:34:19;;;;;;;7.82;4.82;;;;;;;12.12;29.33;97237.81;5032056;28;20041;-26
2022/03/09 10:36:56;;;;;;;13.45;5.63;;;;;;;11.62;29.88;97224.31;5033362;28;20500;-27
2022/03/09 10:39:23;;;;;;;7.13;5.00;;;;;;;11.82;29.60;97222.44;5033189;28;20056;-28
2022/03/09 10:41:49;;;;;;;10.32;5.85;;;;;;;11.75;29.62;97231.47;5033624;28;20561;-26
2022/03/09 10:44:14;;;;;;;8.27;5.05;;;;;;;11.87;29.53;97230.88;5033168;28;20112;-27
2022/03/09 10:46:41;;;;;;;9.07;5.43;;;;;;;12.12;29.41;97221.50;5033258;28;20022;-27
2022/03/09 10:49:08;;;;;;;8.68;4.25;;;;;;;12.11;29.53;97209.91;5033098;28;20080;-27
2022/03/09 10:51:47;;;;;;;7.00;4.20;;;;;;;12.41;28.95;97214.34;5033551;28;20025;-26
2022/03/09 10:54:16;;;;;;;9.70;5.93;;;;;;;11.87;30.08;97225.44;5033483;28;20018;-27
2022/03/09 10:56:42;;;;;;;11.60;5.97;;;;;;;11.76;30.07;97222.16;5033031;28;20063;-26
2022/03/09 10:59:14;;;;;;;7.18;5.15;;;;;;;12.14;29.50;97228.06;5033079;28;20030;-28
2022/03/09 11:01:40;;;;;;;14.15;6.75;;;;;;;11.19;31.42;97229.66;5032173;28;20116;-28
2022/03/09 11:04:17;;;;;;;11.35;7.75;;;;;;;11.50;31.06;97247.38;5032690;28;20056;-26
2022/03/09 11:06:46;;;;;;;11.20;7.45;;;;;;;11.77;30.80;97244.66;5033030;28;20079;-26
2022/03/09 11:09:17;;;;;;;12.15;7.43;;;;;;;12.17;30.15;97245.50;5032054;28;20041;-26
2022/03/09 11:11:45;;;;;;;11.52;6.65;;;;;;;12.28;29.92;97250.75;5018030;28;20065;-28
2022/03/09 11:14:13;;;;;;;10.85;7.00;;;;;;;12.14;30.53;97257.22;5019711;28;20059;-27
2022/03/09 11:16:39;;;;;;;8.55;5.55;;;;;;;12.50;29.66;97262.75;5032809;28;20075;-26
2022/03/09 11:19:05;;;;;;;9.85;6.20;;;;;;;12.55;29.55;97265.75;5033015;28;20033;-26
2022/03/09 11:21:31;;;;;;;10.05;6.38;;;;;;;12.58;29.00;97262.22;5034246;28;20029;-26
2022/03/09 11:23:56;;;;;;;9.50;6.00;;;;;;;12.46;29.56;97262.84;5036799;28;20021;-26
2022/03/09 11:26:30;;;;;;;9.93;6.10;;;;;;;12.34;29.98;97262.69;5036394;28;20366;-28
2022/03/09 11:29:09;;;;;;;9.65;5.05;;;;;;;12.50;29.55;97262.75;5036523;28;20113;-26
2022/03/09 11:31:42;;;;;;;7.47;4.80;;;;;;;12.53;29.43;97245.59;5036457;28;20482;-26
2022/03/09 11:34:27;;;;;;;;;;;;;;;12.27;29.83;97260.84;5037371;28;20029;-26
2022/03/09 11:36:59;;;;;;;9.00;4.78;;;;;;;12.31;29.65;97250.69;5036549;28;20394;-28